Time,TemperatureF,DewpointF,PressureIn,WindDirection,WindDirectionDegrees,WindSpeedMPH,WindSpeedGustMPH,Humidity,HourlyPrecipIn,Conditions,Clouds,dailyrainin,SolarRadiationWatts/m^2,SoftwareType,DateUTC
2013-07-11 00:05:00,67.6,57.9,30.43,NE,54,0.0,0.0,71,0.00,,,0.00,0,Wunderground v.1.15,2013-07-11 05:05:00,
2013-07-11 00:15:00,67.4,56.9,30.43,NE,54,0.0,0.0,69,0.00,,,0.00,0,Wunderground v.1.15,2013-07-11 05:15:00,
2013-07-11 00:25:00,67.1,57.0,30.43,NE,54,0.0,1.0,70,0.00,,,0.00,0,Wunderground v.1.15,2013-07-11 05:25:00,
2013-07-11 00:35:00,67.0,57.7,30.43,NE,54,0.0,2.0,72,0.00,,,0.00,0,Wunderground v.1.15,2013-07-11 05:35:00,
2013-07-11 00:45:00,66.9,57.6,30.44,NE,54,0.0,2.0,72,0.00,,,0.00,0,Wunderground v.1.15,2013-07-11 05:45:00,
2013-07-11 00:55:00,66.9,57.2,30.44,ENE,58,0.0,3.0,71,0.00,,,0.00,0,Wunderground v.1.15,2013-07-11 05:55:00,
2013-07-11 01:05:00,66.9,56.8,30.44,ENE,61,0.0,3.0,70,0.00,,,0.00,0,Wunderground v.1.15,2013-07-11 06:05:00,
2013-07-11 01:15:00,66.6,56.9,30.45,ENE,61,0.0,3.0,71,0.00,,,0.00,0,Wunderground v.1.15,2013-07-11 06:15:00,
2013-07-11 01:25:00,66.4,56.7,30.45,ENE,61,0.0,2.0,71,0.00,,,0.00,0,Wunderground v.1.15,2013-07-11 06:25:00,
2013-07-11 01:35:00,66.3,57.0,30.45,ENE,60,1.0,2.0,72,0.00,,,0.00,0,Wunderground v.1.15,2013-07-11 06:35:00,
2013-07-11 01:45:00,66.6,57.3,30.44,ENE,78,2.0,6.0,72,0.00,,,0.00,0,Wunderground v.1.15,2013-07-11 06:45:00,
2013-07-11 01:55:00,66.8,57.1,30.44,NE,56,2.0,6.0,71,0.00,,,0.00,0,Wunderground v.1.15,2013-07-11 06:55:00,
2013-07-11 02:05:00,67.0,57.3,30.44,East,83,1.0,5.0,71,0.00,,,0.00,0,Wunderground v.1.15,2013-07-11 07:05:00,
2013-07-11 02:15:00,67.1,57.4,30.44,ENE,76,2.0,6.0,71,0.00,,,0.00,0,Wunderground v.1.15,2013-07-11 07:15:00,
2013-07-11 02:25:00,67.1,57.4,30.44,ENE,78,1.0,3.0,71,0.00,,,0.00,0,Wunderground v.1.15,2013-07-11 07:25:00,
2013-07-11 02:30:00,67.1,57.4,30.45,ESE,106,2.0,2.0,71,0.00,,,0.00,0,Wunderground v.1.15,2013-07-11 07:30:00,
2013-07-11 02:35:00,67.1,57.4,30.45,ESE,123,2.0,4.0,71,0.00,,,0.00,0,Wunderground v.1.15,2013-07-11 07:35:00,
2013-07-11 02:45:00,67.3,57.6,30.45,East,86,3.0,6.0,71,0.00,,,0.00,0,Wunderground v.1.15,2013-07-11 07:45:00,
2013-07-11 02:55:00,67.5,57.4,30.45,East,96,2.0,7.0,70,0.00,,,0.00,0,Wunderground v.1.15,2013-07-11 07:55:00,
2013-07-11 03:05:00,67.5,57.4,30.45,East,84,3.0,7.0,70,0.00,,,0.00,0,Wunderground v.1.15,2013-07-11 08:05:00,
2013-07-11 03:15:00,67.5,57.4,30.45,ESE,116,3.0,7.0,70,0.00,,,0.00,0,Wunderground v.1.15,2013-07-11 08:15:00,
2013-07-11 03:25:00,67.5,57.4,30.45,East,101,2.0,7.0,70,0.00,,,0.00,0,Wunderground v.1.15,2013-07-11 08:25:00,
2013-07-11 03:35:00,67.5,57.8,30.45,ESE,119,2.0,5.0,71,0.00,,,0.00,0,Wunderground v.1.15,2013-07-11 08:35:00,
2013-07-11 03:45:00,67.3,57.6,30.45,ESE,109,2.0,5.0,71,0.00,,,0.00,0,Wunderground v.1.15,2013-07-11 08:45:00,
2013-07-11 03:55:00,66.7,57.4,30.45,East,85,2.0,7.0,72,0.00,,,0.00,0,Wunderground v.1.15,2013-07-11 08:55:00,
2013-07-11 04:05:00,66.6,57.3,30.45,ESE,109,2.0,7.0,72,0.00,,,0.00,0,Wunderground v.1.15,2013-07-11 09:05:00,
2013-07-11 04:15:00,66.9,57.6,30.45,ESE,117,1.0,3.0,72,0.00,,,0.00,0,Wunderground v.1.15,2013-07-11 09:15:00,
2013-07-11 04:25:00,66.6,58.1,30.45,ESE,117,1.0,4.0,74,0.00,,,0.00,0,Wunderground v.1.15,2013-07-11 09:25:00,
2013-07-11 04:35:00,65.7,57.2,30.46,ESE,117,1.0,4.0,74,0.00,,,0.00,0,Wunderground v.1.15,2013-07-11 09:35:00,
2013-07-11 04:45:00,65.4,57.3,30.45,ESE,117,1.0,3.0,75,0.00,,,0.00,0,Wunderground v.1.15,2013-07-11 09:45:00,
2013-07-11 04:55:00,65.3,57.2,30.46,SE,132,1.0,4.0,75,0.00,,,0.00,0,Wunderground v.1.15,2013-07-11 09:55:00,
2013-07-11 05:05:00,65.4,57.3,30.45,SE,130,1.0,3.0,75,0.00,,,0.00,0,Wunderground v.1.15,2013-07-11 10:05:00,
2013-07-11 05:15:00,64.9,57.2,30.45,ESE,114,2.0,3.0,76,0.00,,,0.00,0,Wunderground v.1.15,2013-07-11 10:15:00,
2013-07-11 05:25:00,65.2,57.4,30.45,ESE,108,2.0,3.0,76,0.00,,,0.00,0,Wunderground v.1.15,2013-07-11 10:25:00,
2013-07-11 05:35:00,65.2,57.4,30.45,SE,140,2.0,4.0,76,0.00,,,0.00,0,Wunderground v.1.15,2013-07-11 10:35:00,
2013-07-11 05:45:00,65.1,57.3,30.46,SE,140,1.0,4.0,76,0.00,,,0.00,0,Wunderground v.1.15,2013-07-11 10:45:00,
2013-07-11 05:55:00,64.3,57.3,30.46,SE,127,1.0,3.0,78,0.00,,,0.00,0,Wunderground v.1.15,2013-07-11 10:55:00,
2013-07-11 06:05:00,64.0,57.0,30.46,SE,140,1.0,3.0,78,0.00,,,0.00,9,Wunderground v.1.15,2013-07-11 11:05:00,
2013-07-11 06:15:00,64.0,57.0,30.46,SE,135,2.0,5.0,78,0.00,,,0.00,16,Wunderground v.1.15,2013-07-11 11:15:00,
2013-07-11 06:25:00,64.2,57.2,30.47,ESE,121,2.0,5.0,78,0.00,,,0.00,21,Wunderground v.1.15,2013-07-11 11:25:00,
2013-07-11 06:35:00,64.6,57.6,30.47,ESE,111,3.0,5.0,78,0.00,,,0.00,30,Wunderground v.1.15,2013-07-11 11:35:00,
2013-07-11 06:45:00,65.1,57.7,30.48,East,90,3.0,7.0,77,0.00,,,0.00,51,Wunderground v.1.15,2013-07-11 11:45:00,
2013-07-11 06:50:00,65.5,58.1,30.47,ESE,103,3.0,7.0,77,0.00,,,0.00,69,Wunderground v.1.15,2013-07-11 11:50:00,
2013-07-11 06:55:00,66.0,58.2,30.47,SE,138,4.0,8.0,76,0.00,,,0.00,77,Wunderground v.1.15,2013-07-11 11:55:00,
2013-07-11 07:05:00,67.0,58.1,30.48,SE,128,4.0,8.0,73,0.00,,,0.00,72,Wunderground v.1.15,2013-07-11 12:05:00,
2013-07-11 07:15:00,67.5,58.2,30.48,SE,129,5.0,9.0,72,0.00,,,0.00,54,Wunderground v.1.15,2013-07-11 12:15:00,
2013-07-11 07:25:00,67.5,58.9,30.48,ESE,123,5.0,9.0,74,0.00,,,0.00,56,Wunderground v.1.15,2013-07-11 12:25:00,
2013-07-11 07:35:00,67.7,59.1,30.48,ESE,111,5.0,9.0,74,0.00,,,0.00,62,Wunderground v.1.15,2013-07-11 12:35:00,
2013-07-11 07:45:00,68.0,59.4,30.48,ESE,121,6.0,6.0,74,0.00,,,0.00,70,Wunderground v.1.15,2013-07-11 12:45:00,
2013-07-11 07:55:00,68.6,60.0,30.48,ESE,123,6.0,7.0,74,0.00,,,0.00,253,Wunderground v.1.15,2013-07-11 12:55:00,
2013-07-11 08:05:00,69.5,59.7,30.48,ESE,123,6.0,10.0,71,0.00,,,0.00,267,Wunderground v.1.15,2013-07-11 13:05:00,
2013-07-11 08:15:00,70.5,59.8,30.48,SE,141,7.0,11.0,69,0.00,,,0.00,301,Wunderground v.1.15,2013-07-11 13:15:00,
2013-07-11 08:25:00,71.3,59.8,30.48,SE,136,6.0,11.0,67,0.00,,,0.00,329,Wunderground v.1.15,2013-07-11 13:25:00,
2013-07-11 08:35:00,72.1,59.2,30.48,SE,140,6.0,8.0,64,0.00,,,0.00,364,Wunderground v.1.15,2013-07-11 13:35:00,
2013-07-11 08:50:00,72.9,59.6,30.48,SE,143,7.0,11.0,63,0.00,,,0.00,408,Wunderground v.1.15,2013-07-11 13:50:00,
2013-07-11 08:55:00,73.0,60.1,30.48,SE,132,7.0,12.0,64,0.00,,,0.00,417,Wunderground v.1.15,2013-07-11 13:55:00,
2013-07-11 09:05:00,73.3,60.8,30.48,SSE,157,7.0,12.0,65,0.00,,,0.00,454,Wunderground v.1.15,2013-07-11 14:05:00,
2013-07-11 09:15:00,73.5,61.4,30.48,SE,140,9.0,14.0,66,0.00,,,0.00,476,Wunderground v.1.15,2013-07-11 14:15:00,
2013-07-11 09:25:00,73.7,60.8,30.48,SE,134,8.0,14.0,64,0.00,,,0.00,506,Wunderground v.1.15,2013-07-11 14:25:00,
2013-07-11 09:35:00,74.5,61.5,30.47,SSE,151,8.0,14.0,64,0.00,,,0.00,538,Wunderground v.1.15,2013-07-11 14:35:00,
2013-07-11 09:45:00,74.7,60.8,30.47,SE,134,9.0,11.0,62,0.00,,,0.00,568,Wunderground v.1.15,2013-07-11 14:45:00,
2013-07-11 09:55:00,75.4,61.9,30.47,SE,142,8.0,9.0,63,0.00,,,0.00,592,Wunderground v.1.15,2013-07-11 14:55:00,
2013-07-11 10:05:00,76.5,62.0,30.47,South,179,7.0,13.0,61,0.00,,,0.00,621,Wunderground v.1.15,2013-07-11 15:05:00,
2013-07-11 10:15:00,76.8,60.4,30.47,SE,144,9.0,14.0,57,0.00,,,0.00,640,Wunderground v.1.15,2013-07-11 15:15:00,
2013-07-11 10:25:00,77.2,60.3,30.47,South,185,9.0,17.0,56,0.00,,,0.00,668,Wunderground v.1.15,2013-07-11 15:25:00,
2013-07-11 10:35:00,77.8,60.8,30.47,SE,136,9.0,17.0,56,0.00,,,0.00,689,Wunderground v.1.15,2013-07-11 15:35:00,
2013-07-11 10:45:00,78.3,61.3,30.47,SSE,167,8.0,13.0,56,0.00,,,0.00,712,Wunderground v.1.15,2013-07-11 15:45:00,
2013-07-11 10:55:00,78.8,60.2,30.47,SE,134,9.0,14.0,53,0.00,,,0.00,735,Wunderground v.1.15,2013-07-11 15:55:00,
2013-07-11 11:05:00,78.6,60.6,30.47,SE,143,8.0,14.0,54,0.00,,,0.00,752,Wunderground v.1.15,2013-07-11 16:05:00,
2013-07-11 11:15:00,79.4,60.2,30.47,SSE,148,8.0,15.0,52,0.00,,,0.00,773,Wunderground v.1.15,2013-07-11 16:15:00,
2013-07-11 11:25:00,79.8,61.1,30.46,SE,132,8.0,14.0,53,0.00,,,0.00,789,Wunderground v.1.15,2013-07-11 16:25:00,
2013-07-11 11:35:00,80.2,61.5,30.46,SSE,149,8.0,14.0,53,0.00,,,0.00,805,Wunderground v.1.15,2013-07-11 16:35:00,
2013-07-11 11:45:00,80.5,61.8,30.46,SE,138,8.0,11.0,53,0.00,,,0.00,821,Wunderground v.1.15,2013-07-11 16:45:00,
2013-07-11 11:55:00,80.3,62.1,30.45,SE,146,8.0,17.0,54,0.00,,,0.00,828,Wunderground v.1.15,2013-07-11 16:55:00,
2013-07-11 12:05:00,80.1,59.2,30.45,SSE,153,9.0,17.0,49,0.00,,,0.00,844,Wunderground v.1.15,2013-07-11 17:05:00,
2013-07-11 12:15:00,81.0,60.0,30.45,SE,140,9.0,17.0,49,0.00,,,0.00,856,Wunderground v.1.15,2013-07-11 17:15:00,
2013-07-11 12:25:00,81.1,60.1,30.44,South,173,10.0,10.0,49,0.00,,,0.00,868,Wunderground v.1.15,2013-07-11 17:25:00,
2013-07-11 12:35:00,81.6,61.2,30.44,SE,140,9.0,18.0,50,0.00,,,0.00,872,Wunderground v.1.15,2013-07-11 17:35:00,
2013-07-11 12:46:00,81.8,60.8,30.44,SSE,155,9.0,16.0,49,0.00,,,0.00,872,Wunderground v.1.15,2013-07-11 17:46:00,
2013-07-11 12:55:00,82.3,61.8,30.44,SE,134,9.0,10.0,50,0.00,,,0.00,877,Wunderground v.1.15,2013-07-11 17:55:00,
2013-07-11 13:05:00,82.3,61.2,30.44,South,169,8.0,17.0,49,0.00,,,0.00,874,Wunderground v.1.15,2013-07-11 18:05:00,
2013-07-11 13:15:00,82.6,60.9,30.44,SW,219,9.0,17.0,48,0.00,,,0.00,879,Wunderground v.1.15,2013-07-11 18:15:00,
2013-07-11 13:25:00,83.3,62.1,30.44,South,171,9.0,15.0,49,0.00,,,0.00,879,Wunderground v.1.15,2013-07-11 18:25:00,
2013-07-11 13:35:00,82.4,60.1,30.44,SSE,147,8.0,10.0,47,0.00,,,0.00,888,Wunderground v.1.15,2013-07-11 18:35:00,
2013-07-11 13:45:00,83.0,59.5,30.43,SSE,153,8.0,16.0,45,0.00,,,0.00,888,Wunderground v.1.15,2013-07-11 18:45:00,
2013-07-11 13:50:00,83.4,59.2,30.43,SSE,153,9.0,9.0,44,0.00,,,0.00,888,Wunderground v.1.15,2013-07-11 18:50:00,
2013-07-11 13:55:00,83.5,59.9,30.43,South,190,9.0,16.0,45,0.00,,,0.00,882,Wunderground v.1.15,2013-07-11 18:55:00,
2013-07-11 14:05:00,83.5,59.9,30.43,SSE,152,9.0,16.0,45,0.00,,,0.00,882,Wunderground v.1.15,2013-07-11 19:05:00,
2013-07-11 14:15:00,83.6,59.4,30.43,SSE,160,8.0,15.0,44,0.00,,,0.00,875,Wunderground v.1.15,2013-07-11 19:15:00,
2013-07-11 14:25:00,84.0,60.4,30.43,South,178,8.0,8.0,45,0.00,,,0.00,861,Wunderground v.1.15,2013-07-11 19:25:00,
2013-07-11 14:35:00,84.0,60.4,30.43,South,171,9.0,16.0,45,0.00,,,0.00,846,Wunderground v.1.15,2013-07-11 19:35:00,
2013-07-11 14:45:00,83.9,60.3,30.43,SSW,197,8.0,10.0,45,0.00,,,0.00,840,Wunderground v.1.15,2013-07-11 19:45:00,
2013-07-11 15:05:00,84.4,60.1,30.42,SE,130,9.0,18.0,44,0.00,,,0.00,814,Wunderground v.1.15,2013-07-11 20:05:00,
2013-07-11 15:15:00,84.5,60.8,30.42,South,171,8.0,12.0,45,0.00,,,0.00,807,Wunderground v.1.15,2013-07-11 20:15:00,
2013-07-11 15:25:00,84.4,60.1,30.42,South,169,9.0,15.0,44,0.00,,,0.00,789,Wunderground v.1.15,2013-07-11 20:25:00,
2013-07-11 15:35:00,84.8,61.1,30.41,SSE,164,9.0,11.0,45,0.00,,,0.00,766,Wunderground v.1.15,2013-07-11 20:35:00,
2013-07-11 15:45:00,85.4,59.7,30.41,SSE,167,10.0,15.0,42,0.00,,,0.00,758,Wunderground v.1.15,2013-07-11 20:45:00,
2013-07-11 15:55:00,84.9,58.6,30.41,SSE,150,8.0,16.0,41,0.00,,,0.00,737,Wunderground v.1.15,2013-07-11 20:55:00,
2013-07-11 16:05:00,85.1,59.4,30.40,SSE,163,9.0,16.0,42,0.00,,,0.00,715,Wunderground v.1.15,2013-07-11 21:05:00,
2013-07-11 16:10:00,85.2,60.2,30.40,SSE,153,9.0,9.0,43,0.00,,,0.00,707,Wunderground v.1.15,2013-07-11 21:10:00,
2013-07-11 16:15:00,85.0,59.3,30.40,South,185,9.0,10.0,42,0.00,,,0.00,696,Wunderground v.1.15,2013-07-11 21:15:00,
2013-07-11 16:35:00,85.3,59.6,30.40,SSE,152,9.0,16.0,42,0.00,,,0.00,647,Wunderground v.1.15,2013-07-11 21:35:00,
2013-07-11 16:45:00,85.5,59.8,30.40,SSE,167,8.0,15.0,42,0.00,,,0.00,624,Wunderground v.1.15,2013-07-11 21:45:00,
2013-07-11 16:55:00,85.3,57.5,30.40,SE,137,9.0,16.0,39,0.00,,,0.00,605,Wunderground v.1.15,2013-07-11 21:55:00,
2013-07-11 17:05:00,85.0,58.0,30.40,SE,138,8.0,16.0,40,0.00,,,0.00,571,Wunderground v.1.15,2013-07-11 22:05:00,
2013-07-11 17:15:00,85.3,58.9,30.39,SSE,160,8.0,14.0,41,0.00,,,0.00,541,Wunderground v.1.15,2013-07-11 22:15:00,
2013-07-11 17:25:00,85.0,58.7,30.39,South,182,8.0,13.0,41,0.00,,,0.00,517,Wunderground v.1.15,2013-07-11 22:25:00,
2013-07-11 17:35:00,85.3,58.9,30.39,SSE,162,8.0,16.0,41,0.00,,,0.00,489,Wunderground v.1.15,2013-07-11 22:35:00,
2013-07-11 17:45:00,84.9,58.6,30.39,SSE,161,8.0,9.0,41,0.00,,,0.00,461,Wunderground v.1.15,2013-07-11 22:45:00,
2013-07-11 17:55:00,84.9,59.2,30.38,SE,143,7.0,15.0,42,0.00,,,0.00,431,Wunderground v.1.15,2013-07-11 22:55:00,
2013-07-11 18:00:00,84.9,59.2,30.38,SSE,150,7.0,15.0,42,0.00,,,0.00,413,Wunderground v.1.15,2013-07-11 23:00:00,
2013-07-11 18:05:00,84.8,59.2,30.38,SE,132,8.0,15.0,42,0.00,,,0.00,399,Wunderground v.1.15,2013-07-11 23:05:00,
2013-07-11 18:15:00,84.7,59.1,30.38,South,169,9.0,12.0,42,0.00,,,0.00,367,Wunderground v.1.15,2013-07-11 23:15:00,
2013-07-11 18:20:00,84.6,60.3,30.38,SSE,167,9.0,9.0,44,0.00,,,0.00,357,Wunderground v.1.15,2013-07-11 23:20:00,
2013-07-11 18:25:00,84.7,60.4,30.37,ESE,123,8.0,16.0,44,0.00,,,0.00,343,Wunderground v.1.15,2013-07-11 23:25:00,
2013-07-11 18:35:00,84.3,60.0,30.37,South,175,8.0,16.0,44,0.00,,,0.00,121,Wunderground v.1.15,2013-07-11 23:35:00,
2013-07-11 18:45:00,84.2,59.9,30.36,SE,135,8.0,14.0,44,0.00,,,0.00,79,Wunderground v.1.15,2013-07-11 23:45:00,
2013-07-11 18:55:00,83.9,60.3,30.36,SE,144,8.0,14.0,45,0.00,,,0.00,53,Wunderground v.1.15,2013-07-11 23:55:00,
2013-07-11 19:05:00,83.6,60.6,30.37,South,171,8.0,14.0,46,0.00,,,0.00,49,Wunderground v.1.15,2013-07-12 00:05:00,
2013-07-11 19:10:00,83.5,60.5,30.37,SSE,168,6.0,6.0,46,0.00,,,0.00,47,Wunderground v.1.15,2013-07-12 00:10:00,
2013-07-11 19:20:00,83.1,60.8,30.36,SE,143,8.0,8.0,47,0.00,,,0.00,44,Wunderground v.1.15,2013-07-12 00:20:00,
2013-07-11 19:25:00,82.9,60.6,30.36,SE,130,7.0,13.0,47,0.00,,,0.00,42,Wunderground v.1.15,2013-07-12 00:25:00,
2013-07-11 19:35:00,82.2,60.6,30.36,SSE,155,7.0,8.0,48,0.00,,,0.00,39,Wunderground v.1.15,2013-07-12 00:35:00,
2013-07-11 19:45:00,81.8,60.2,30.36,East,96,7.0,15.0,48,0.00,,,0.00,35,Wunderground v.1.15,2013-07-12 00:45:00,
2013-07-11 19:55:00,81.3,60.9,30.36,SE,135,7.0,10.0,50,0.00,,,0.00,30,Wunderground v.1.15,2013-07-12 00:55:00,
2013-07-11 20:00:00,81.0,61.2,30.36,SE,134,6.0,6.0,51,0.00,,,0.00,30,Wunderground v.1.15,2013-07-12 01:00:00,
2013-07-11 20:05:00,80.4,61.2,30.36,SE,134,7.0,8.0,52,0.00,,,0.00,26,Wunderground v.1.15,2013-07-12 01:05:00,
2013-07-11 20:15:00,79.4,61.8,30.36,SSE,150,8.0,13.0,55,0.00,,,0.00,23,Wunderground v.1.15,2013-07-12 01:15:00,
2013-07-11 20:25:00,78.8,61.8,30.35,ESE,123,7.0,13.0,56,0.00,,,0.00,19,Wunderground v.1.15,2013-07-12 01:25:00,
2013-07-11 20:35:00,78.2,61.2,30.35,South,186,8.0,13.0,56,0.00,,,0.00,12,Wunderground v.1.15,2013-07-12 01:35:00,
2013-07-11 20:45:00,77.9,60.9,30.35,SSE,159,8.0,13.0,56,0.00,,,0.00,7,Wunderground v.1.15,2013-07-12 01:45:00,
2013-07-11 20:55:00,77.5,61.1,30.35,SE,134,8.0,13.0,57,0.00,,,0.00,0,Wunderground v.1.15,2013-07-12 01:55:00,
2013-07-11 21:05:00,77.1,61.2,30.35,SE,124,8.0,13.0,58,0.00,,,0.00,0,Wunderground v.1.15,2013-07-12 02:05:00,
2013-07-11 21:15:00,76.7,60.8,30.35,SE,141,7.0,13.0,58,0.00,,,0.00,0,Wunderground v.1.15,2013-07-12 02:15:00,
2013-07-11 21:25:00,76.3,60.4,30.35,SSE,155,9.0,13.0,58,0.00,,,0.00,0,Wunderground v.1.15,2013-07-12 02:25:00,
2013-07-11 21:35:00,76.2,60.8,30.35,SSE,149,8.0,12.0,59,0.00,,,0.00,0,Wunderground v.1.15,2013-07-12 02:35:00,
2013-07-11 21:40:00,76.0,60.6,30.36,SE,124,7.0,12.0,59,0.00,,,0.00,0,Wunderground v.1.15,2013-07-12 02:40:00,
2013-07-11 21:45:00,75.6,60.7,30.36,SE,135,7.0,12.0,60,0.00,,,0.00,0,Wunderground v.1.15,2013-07-12 02:45:00,
2013-07-11 21:55:00,74.9,61.0,30.37,ESE,123,7.0,10.0,62,0.00,,,0.00,0,Wunderground v.1.15,2013-07-12 02:55:00,
2013-07-11 22:05:00,74.4,61.0,30.37,SE,142,6.0,8.0,63,0.00,,,0.00,0,Wunderground v.1.15,2013-07-12 03:05:00,
2013-07-11 22:15:00,74.2,61.2,30.37,SE,138,6.0,11.0,64,0.00,,,0.00,0,Wunderground v.1.15,2013-07-12 03:15:00,
2013-07-11 22:25:00,73.8,60.9,30.37,SE,144,6.0,10.0,64,0.00,,,0.00,0,Wunderground v.1.15,2013-07-12 03:25:00,
2013-07-11 22:35:00,73.6,61.1,30.37,SE,132,7.0,11.0,65,0.00,,,0.00,0,Wunderground v.1.15,2013-07-12 03:35:00,
2013-07-11 22:45:00,73.4,61.3,30.37,SE,142,7.0,13.0,66,0.00,,,0.00,0,Wunderground v.1.15,2013-07-12 03:45:00,
2013-07-11 22:55:00,73.0,61.4,30.38,SE,144,6.0,10.0,67,0.00,,,0.00,0,Wunderground v.1.15,2013-07-12 03:55:00,
2013-07-11 23:05:00,72.7,61.5,30.38,SSE,148,7.0,11.0,68,0.00,,,0.00,0,Wunderground v.1.15,2013-07-12 04:05:00,
2013-07-11 23:10:00,72.7,61.9,30.38,SSE,168,7.0,11.0,69,0.00,,,0.00,0,Wunderground v.1.15,2013-07-12 04:10:00,
2013-07-11 23:15:00,72.6,61.8,30.38,SSE,162,7.0,11.0,69,0.00,,,0.00,0,Wunderground v.1.15,2013-07-12 04:15:00,
2013-07-11 23:25:00,72.1,61.8,30.38,SSE,159,7.0,12.0,70,0.00,,,0.00,0,Wunderground v.1.15,2013-07-12 04:25:00,
2013-07-11 23:35:00,71.9,61.6,30.38,SSE,160,7.0,12.0,70,0.00,,,0.00,0,Wunderground v.1.15,2013-07-12 04:35:00,
2013-07-11 23:40:00,71.8,61.9,30.38,SSE,148,7.0,11.0,71,0.00,,,0.00,0,Wunderground v.1.15,2013-07-12 04:40:00,
2013-07-11 23:45:00,71.6,61.7,30.38,SE,142,7.0,12.0,71,0.00,,,0.00,0,Wunderground v.1.15,2013-07-12 04:45:00,
2013-07-11 23:55:00,71.3,61.4,30.38,SE,139,8.0,11.0,71,0.00,,,0.00,0,Wunderground v.1.15,2013-07-12 04:55:00,